Greater Peoria Regional Airport
KPIA : now visible

Airfield :











YOU CAN JOIN US ON...

 
LOGIN :

Register | Disclaimer

   EN    FR    IT 

 









Legend :    VFR   Marginal VFR   IFR   Intensive IFR   Very Intensive IFR
Visi :
Ceiling :
>= 8 km
>= 3000ft
5 to 8 km
1000 to 3000 ft
1500m to 5 km
500 to 1000 ft
800 to 1500m
200 to 500 ft
< 800m
< 200 ft
Symbols :   Thunderstorms  Fog  Heavy snow  Heavy precipitations  Wind > 20 kt







- Airport Elevation : 660 ft
- IATA code : PIA


KPIA - Greater Peoria Regional

CURRENT METAR :
  • 241827Z 00000KT 10SM VCTS FEW075 SCT100 24/20 A3003 RMK AO2 LTG DSNT SW AND W T02390200

EXPIRED METARs :
  • 241754Z 00000KT 10SM CLR 25/20 A3005 RMK AO2 LTG DSNT SW AND W SLP170 T02500200 10256 20172 55006
  • 241654Z AUTO 13006KT 10SM CLR 24/19 A3004 RMK AO2 SLP168 T02390189
  • 241554Z 12007KT 10SM CLR 22/17 A3005 RMK AO2 SLP174 T02170172

TAF KPIA
Valid from the 24 at 18:00 until the 25 at 18:00 UTC


241745Z 2418/2518 14006KT P6SM SCT025 OVC120
TEMPO 2418/2420 2SM TSRA BR OVC025CB
FM242100 21010G20KT P6SM VCTS SCT035CB BKN120
FM250200 21008KT P6SM BKN120
FM250900 22006KT P6SM VCTS BKN120CB
KZAU FIR / North America



MET'MAP, your aeronautical weather chart ! - Copyright ORBIFLY December 2007 - Disclaimer

ORBIFLY MET'MAP TEAM :

Programming & Development : Alexandra Zaïnal
Concept & Development : Baudouin d'Aumeries
Co-Development & Prog : Marc-Olivier Méhu
Technical & hardware support : Manuel Goepfert

Contact : metmap@orbifly.com




SOURCES & CREDITS :

   NOAA       Earth
Advisory